Terminal Aerodrome Forecast
Issued by NWS Charleston, WV

Current Version | Previous Version | Text Only | Print | Product List | Glossary Off
Versions: 1 2 3 4 5 6 7 8 9 10 11 12 13 14 15 16 17 18 19 20 21

132
FTUS41 KRLX 110305 AAA
TAFBKW
TAF AMD
KBKW 110305Z 1103/1124 28012G18KT 3SM -SHSN BKN015 BKN020
     FM110500 29013G19KT 5SM -SHSN BKN025
     FM110800 30010G16KT P6SM BKN025
     FM112000 30010KT P6SM SCT030=

USA.gov is the U.S. government's official web portal to all federal, state and local government web resources and services.